sensor_id;sensor_type;location;lat;lon;timestamp;temperature;humidity
14993;DHT22;7592;51.088;13.732;2023-06-14T00:00:59;13.90;99.90
14993;DHT22;7592;51.088;13.732;2023-06-14T00:05:52;13.80;99.90
14993;DHT22;7592;51.088;13.732;2023-06-14T00:10:44;13.70;99.90
14993;DHT22;7592;51.088;13.732;2023-06-14T00:15:36;13.60;99.90
14993;DHT22;7592;51.088;13.732;2023-06-14T00:20:29;13.50;99.90
14993;DHT22;7592;51.088;13.732;2023-06-14T00:25:24;13.40;99.90
14993;DHT22;7592;51.088;13.732;2023-06-14T00:30:21;13.30;99.90
14993;DHT22;7592;51.088;13.732;2023-06-14T00:35:15;13.30;99.90
14993;DHT22;7592;51.088;13.732;2023-06-14T00:40:08;13.20;99.90
14993;DHT22;7592;51.088;13.732;2023-06-14T00:45:00;13.20;99.90
14993;DHT22;7592;51.088;13.732;2023-06-14T00:49:53;13.10;99.90
14993;DHT22;7592;51.088;13.732;2023-06-14T00:54:47;13.10;99.90
14993;DHT22;7592;51.088;13.732;2023-06-14T00:59:45;13.10;99.90
14993;DHT22;7592;51.088;13.732;2023-06-14T01:04:39;13.10;99.90
14993;DHT22;7592;51.088;13.732;2023-06-14T01:14:59;13.00;99.90
14993;DHT22;7592;51.088;13.732;2023-06-14T01:19:53;12.90;99.90
14993;DHT22;7592;51.088;13.732;2023-06-14T01:24:49;12.80;99.90
14993;DHT22;7592;51.088;13.732;2023-06-14T01:29:43;12.70;99.90
14993;DHT22;7592;51.088;13.732;2023-06-14T01:34:39;12.70;99.90
14993;DHT22;7592;51.088;13.732;2023-06-14T01:39:32;12.60;99.90
14993;DHT22;7592;51.088;13.732;2023-06-14T01:50:04;12.40;99.90
14993;DHT22;7592;51.088;13.732;2023-06-14T01:54:57;12.30;99.90
14993;DHT22;7592;51.088;13.732;2023-06-14T01:59:49;12.30;99.90
14993;DHT22;7592;51.088;13.732;2023-06-14T02:04:42;12.20;99.90
14993;DHT22;7592;51.088;13.732;2023-06-14T02:09:36;12.10;99.90
14993;DHT22;7592;51.088;13.732;2023-06-14T02:14:28;12.00;99.90
14993;DHT22;7592;51.088;13.732;2023-06-14T02:19:20;12.00;99.90
14993;DHT22;7592;51.088;13.732;2023-06-14T02:24:13;12.00;99.90
14993;DHT22;7592;51.088;13.732;2023-06-14T02:29:05;12.00;99.90
14993;DHT22;7592;51.088;13.732;2023-06-14T02:34:00;11.90;99.90
14993;DHT22;7592;51.088;13.732;2023-06-14T02:38:53;11.90;99.90
14993;DHT22;7592;51.088;13.732;2023-06-14T02:43:46;11.80;99.90
14993;DHT22;7592;51.088;13.732;2023-06-14T02:48:38;11.80;99.90
14993;DHT22;7592;51.088;13.732;2023-06-14T02:53:33;11.80;99.90
14993;DHT22;7592;51.088;13.732;2023-06-14T02:58:26;11.70;99.90
14993;DHT22;7592;51.088;13.732;2023-06-14T03:03:18;11.60;99.90
14993;DHT22;7592;51.088;13.732;2023-06-14T03:08:17;11.60;99.90
14993;DHT22;7592;51.088;13.732;2023-06-14T03:13:15;11.60;99.90
14993;DHT22;7592;51.088;13.732;2023-06-14T03:18:08;11.60;99.90
14993;DHT22;7592;51.088;13.732;2023-06-14T03:23:08;11.80;99.90
14993;DHT22;7592;51.088;13.732;2023-06-14T03:28:02;11.80;99.90
14993;DHT22;7592;51.088;13.732;2023-06-14T03:32:57;11.80;99.90
14993;DHT22;7592;51.088;13.732;2023-06-14T03:37:52;12.00;99.90
14993;DHT22;7592;51.088;13.732;2023-06-14T03:42:44;12.00;99.90
14993;DHT22;7592;51.088;13.732;2023-06-14T03:47:36;12.10;99.90
14993;DHT22;7592;51.088;13.732;2023-06-14T03:52:29;12.20;99.90
14993;DHT22;7592;51.088;13.732;2023-06-14T03:57:23;12.20;99.90
14993;DHT22;7592;51.088;13.732;2023-06-14T04:02:16;12.40;99.90
14993;DHT22;7592;51.088;13.732;2023-06-14T04:07:13;12.60;99.90
14993;DHT22;7592;51.088;13.732;2023-06-14T04:12:06;12.70;99.90
14993;DHT22;7592;51.088;13.732;2023-06-14T04:16:59;13.00;99.90
14993;DHT22;7592;51.088;13.732;2023-06-14T04:21:51;13.30;99.90
14993;DHT22;7592;51.088;13.732;2023-06-14T04:26:44;13.70;99.90
14993;DHT22;7592;51.088;13.732;2023-06-14T04:31:39;16.70;99.90
14993;DHT22;7592;51.088;13.732;2023-06-14T04:36:35;19.70;99.90
14993;DHT22;7592;51.088;13.732;2023-06-14T04:41:31;19.80;99.90
14993;DHT22;7592;51.088;13.732;2023-06-14T04:46:24;22.40;99.90
14993;DHT22;7592;51.088;13.732;2023-06-14T04:51:16;20.70;99.90
14993;DHT22;7592;51.088;13.732;2023-06-14T04:56:13;20.60;99.90
14993;DHT22;7592;51.088;13.732;2023-06-14T05:01:05;24.20;97.50
14993;DHT22;7592;51.088;13.732;2023-06-14T05:05:57;26.60;85.80
14993;DHT22;7592;51.088;13.732;2023-06-14T05:10:50;27.30;76.80
14993;DHT22;7592;51.088;13.732;2023-06-14T05:15:42;25.90;78.60
14993;DHT22;7592;51.088;13.732;2023-06-14T05:20:35;28.10;70.10
14993;DHT22;7592;51.088;13.732;2023-06-14T05:25:29;28.20;67.80
14993;DHT22;7592;51.088;13.732;2023-06-14T05:30:21;25.50;71.90
14993;DHT22;7592;51.088;13.732;2023-06-14T05:35:13;22.30;83.00
14993;DHT22;7592;51.088;13.732;2023-06-14T05:40:07;20.40;91.40
14993;DHT22;7592;51.088;13.732;2023-06-14T05:45:00;19.60;97.30
14993;DHT22;7592;51.088;13.732;2023-06-14T05:49:54;19.40;99.90
14993;DHT22;7592;51.088;13.732;2023-06-14T05:54:47;19.90;99.90
14993;DHT22;7592;51.088;13.732;2023-06-14T05:59:39;24.70;95.00
14993;DHT22;7592;51.088;13.732;2023-06-14T06:04:32;28.50;77.90
14993;DHT22;7592;51.088;13.732;2023-06-14T06:09:24;33.00;58.30
14993;DHT22;7592;51.088;13.732;2023-06-14T06:14:16;34.00;53.10
14993;DHT22;7592;51.088;13.732;2023-06-14T06:19:08;36.40;50.00
14993;DHT22;7592;51.088;13.732;2023-06-14T06:24:01;36.70;46.80
14993;DHT22;7592;51.088;13.732;2023-06-14T06:28:55;36.80;46.40
14993;DHT22;7592;51.088;13.732;2023-06-14T06:33:49;38.30;45.30
14993;DHT22;7592;51.088;13.732;2023-06-14T06:38:42;37.60;44.50
14993;DHT22;7592;51.088;13.732;2023-06-14T06:43:34;38.50;43.70
14993;DHT22;7592;51.088;13.732;2023-06-14T06:48:26;39.00;42.70
14993;DHT22;7592;51.088;13.732;2023-06-14T06:53:19;38.50;42.80
14993;DHT22;7592;51.088;13.732;2023-06-14T06:58:22;38.00;43.30
14993;DHT22;7592;51.088;13.732;2023-06-14T07:03:15;40.10;41.50
14993;DHT22;7592;51.088;13.732;2023-06-14T07:08:07;40.40;41.40
14993;DHT22;7592;51.088;13.732;2023-06-14T07:12:59;41.50;40.00
14993;DHT22;7592;51.088;13.732;2023-06-14T07:17:52;40.10;38.90
14993;DHT22;7592;51.088;13.732;2023-06-14T07:22:45;39.70;38.80
14993;DHT22;7592;51.088;13.732;2023-06-14T07:27:38;36.90;41.30
14993;DHT22;7592;51.088;13.732;2023-06-14T07:32:31;37.10;41.90
14993;DHT22;7592;51.088;13.732;2023-06-14T07:37:23;36.70;41.00
14993;DHT22;7592;51.088;13.732;2023-06-14T07:42:15;37.40;40.20
14993;DHT22;7592;51.088;13.732;2023-06-14T07:47:08;38.00;40.60
14993;DHT22;7592;51.088;13.732;2023-06-14T07:52:00;37.90;39.10
14993;DHT22;7592;51.088;13.732;2023-06-14T07:56:52;35.90;40.80
14993;DHT22;7592;51.088;13.732;2023-06-14T08:01:45;35.90;41.40
14993;DHT22;7592;51.088;13.732;2023-06-14T08:06:39;36.40;41.70
14993;DHT22;7592;51.088;13.732;2023-06-14T08:11:31;35.40;41.50
14993;DHT22;7592;51.088;13.732;2023-06-14T08:16:26;34.70;42.00
14993;DHT22;7592;51.088;13.732;2023-06-14T08:21:18;35.80;40.40
14993;DHT22;7592;51.088;13.732;2023-06-14T08:26:11;36.00;40.50
14993;DHT22;7592;51.088;13.732;2023-06-14T08:31:03;36.30;40.00
14993;DHT22;7592;51.088;13.732;2023-06-14T08:35:55;33.70;41.30
14993;DHT22;7592;51.088;13.732;2023-06-14T08:40:50;33.70;42.50
14993;DHT22;7592;51.088;13.732;2023-06-14T08:45:46;33.50;42.40
14993;DHT22;7592;51.088;13.732;2023-06-14T08:50:40;33.20;43.00
14993;DHT22;7592;51.088;13.732;2023-06-14T08:55:33;32.70;44.10
14993;DHT22;7592;51.088;13.732;2023-06-14T09:00:29;32.90;42.70
14993;DHT22;7592;51.088;13.732;2023-06-14T09:05:26;33.80;42.00
14993;DHT22;7592;51.088;13.732;2023-06-14T09:10:20;34.00;43.00
14993;DHT22;7592;51.088;13.732;2023-06-14T09:15:13;34.00;43.20
14993;DHT22;7592;51.088;13.732;2023-06-14T09:20:08;36.30;41.00
14993;DHT22;7592;51.088;13.732;2023-06-14T09:25:06;37.70;39.20
14993;DHT22;7592;51.088;13.732;2023-06-14T09:30:02;37.40;39.90
14993;DHT22;7592;51.088;13.732;2023-06-14T09:34:55;34.00;42.30
14993;DHT22;7592;51.088;13.732;2023-06-14T09:39:51;30.60;47.50
14993;DHT22;7592;51.088;13.732;2023-06-14T09:44:46;29.80;47.70
14993;DHT22;7592;51.088;13.732;2023-06-14T09:49:39;30.70;47.30
14993;DHT22;7592;51.088;13.732;2023-06-14T09:54:32;32.10;45.40
14993;DHT22;7592;51.088;13.732;2023-06-14T09:59:31;31.70;44.30
14993;DHT22;7592;51.088;13.732;2023-06-14T10:04:24;29.90;46.60
14993;DHT22;7592;51.088;13.732;2023-06-14T10:09:17;29.20;48.00
14993;DHT22;7592;51.088;13.732;2023-06-14T10:14:11;31.10;47.10
14993;DHT22;7592;51.088;13.732;2023-06-14T10:19:29;34.70;41.60
14993;DHT22;7592;51.088;13.732;2023-06-14T10:24:32;36.60;41.60
14993;DHT22;7592;51.088;13.732;2023-06-14T10:29:26;37.70;39.10
14993;DHT22;7592;51.088;13.732;2023-06-14T10:34:31;36.60;40.50
14993;DHT22;7592;51.088;13.732;2023-06-14T10:39:23;35.50;41.60
14993;DHT22;7592;51.088;13.732;2023-06-14T10:49:08;30.10;47.00
14993;DHT22;7592;51.088;13.732;2023-06-14T10:54:01;32.50;45.80
14993;DHT22;7592;51.088;13.732;2023-06-14T10:58:54;33.10;44.10
14993;DHT22;7592;51.088;13.732;2023-06-14T11:03:52;30.20;48.20
14993;DHT22;7592;51.088;13.732;2023-06-14T11:09:11;28.70;50.60
14993;DHT22;7592;51.088;13.732;2023-06-14T11:14:08;27.30;53.40
14993;DHT22;7592;51.088;13.732;2023-06-14T11:19:02;26.70;53.70
14993;DHT22;7592;51.088;13.732;2023-06-14T11:23:57;30.10;50.20
14993;DHT22;7592;51.088;13.732;2023-06-14T11:28:56;30.30;48.70
14993;DHT22;7592;51.088;13.732;2023-06-14T11:33:50;27.20;54.30
14993;DHT22;7592;51.088;13.732;2023-06-14T11:38:42;26.20;55.90
14993;DHT22;7592;51.088;13.732;2023-06-14T11:43:35;25.90;56.70
14993;DHT22;7592;51.088;13.732;2023-06-14T11:48:41;25.20;58.70
14993;DHT22;7592;51.088;13.732;2023-06-14T11:53:34;25.00;58.80
14993;DHT22;7592;51.088;13.732;2023-06-14T11:58:28;26.00;58.40
14993;DHT22;7592;51.088;13.732;2023-06-14T12:03:24;25.60;57.70
14993;DHT22;7592;51.088;13.732;2023-06-14T12:08:17;24.90;58.70
14993;DHT22;7592;51.088;13.732;2023-06-14T12:13:17;24.80;60.00
14993;DHT22;7592;51.088;13.732;2023-06-14T12:18:10;24.70;60.10
14993;DHT22;7592;51.088;13.732;2023-06-14T12:23:04;24.60;61.30
14993;DHT22;7592;51.088;13.732;2023-06-14T12:27:57;24.30;62.20
14993;DHT22;7592;51.088;13.732;2023-06-14T12:32:49;24.00;62.80
14993;DHT22;7592;51.088;13.732;2023-06-14T12:37:44;24.20;62.90
14993;DHT22;7592;51.088;13.732;2023-06-14T12:42:37;23.90;63.80
14993;DHT22;7592;51.088;13.732;2023-06-14T12:47:32;23.80;64.40
14993;DHT22;7592;51.088;13.732;2023-06-14T12:52:24;24.00;64.10
14993;DHT22;7592;51.088;13.732;2023-06-14T12:57:16;23.80;64.50
14993;DHT22;7592;51.088;13.732;2023-06-14T13:02:19;24.00;63.50
14993;DHT22;7592;51.088;13.732;2023-06-14T13:07:17;24.00;63.00
14993;DHT22;7592;51.088;13.732;2023-06-14T13:12:10;24.30;62.20
14993;DHT22;7592;51.088;13.732;2023-06-14T13:17:07;24.90;62.00
14993;DHT22;7592;51.088;13.732;2023-06-14T13:21:59;24.20;64.60
14993;DHT22;7592;51.088;13.732;2023-06-14T13:26:52;23.30;66.70
14993;DHT22;7592;51.088;13.732;2023-06-14T13:31:44;22.80;68.40
14993;DHT22;7592;51.088;13.732;2023-06-14T13:36:37;22.90;67.40
14993;DHT22;7592;51.088;13.732;2023-06-14T13:41:29;23.20;66.00
14993;DHT22;7592;51.088;13.732;2023-06-14T13:46:23;23.80;65.20
14993;DHT22;7592;51.088;13.732;2023-06-14T13:51:16;24.30;63.60
14993;DHT22;7592;51.088;13.732;2023-06-14T13:56:10;24.50;62.50
14993;DHT22;7592;51.088;13.732;2023-06-14T14:01:02;23.90;65.10
14993;DHT22;7592;51.088;13.732;2023-06-14T14:05:54;23.50;64.90
14993;DHT22;7592;51.088;13.732;2023-06-14T14:10:47;23.40;64.60
14993;DHT22;7592;51.088;13.732;2023-06-14T14:15:39;23.30;65.30
14993;DHT22;7592;51.088;13.732;2023-06-14T14:20:31;23.70;64.40
14993;DHT22;7592;51.088;13.732;2023-06-14T14:25:23;24.20;63.60
14993;DHT22;7592;51.088;13.732;2023-06-14T14:30:16;24.50;62.50
14993;DHT22;7592;51.088;13.732;2023-06-14T14:35:10;23.90;61.40
14993;DHT22;7592;51.088;13.732;2023-06-14T14:40:04;23.90;62.60
14993;DHT22;7592;51.088;13.732;2023-06-14T14:44:57;23.70;63.70
14993;DHT22;7592;51.088;13.732;2023-06-14T14:49:49;23.70;63.50
14993;DHT22;7592;51.088;13.732;2023-06-14T14:54:42;23.70;62.50
14993;DHT22;7592;51.088;13.732;2023-06-14T14:59:34;23.70;62.40
14993;DHT22;7592;51.088;13.732;2023-06-14T15:04:26;23.90;60.00
14993;DHT22;7592;51.088;13.732;2023-06-14T15:09:18;24.20;58.70
14993;DHT22;7592;51.088;13.732;2023-06-14T15:14:10;24.50;58.10
14993;DHT22;7592;51.088;13.732;2023-06-14T15:19:02;24.70;58.30
14993;DHT22;7592;51.088;13.732;2023-06-14T15:23:54;24.70;59.20
14993;DHT22;7592;51.088;13.732;2023-06-14T15:28:47;24.10;58.00
14993;DHT22;7592;51.088;13.732;2023-06-14T15:33:39;23.70;59.40
14993;DHT22;7592;51.088;13.732;2023-06-14T15:38:31;23.30;61.40
14993;DHT22;7592;51.088;13.732;2023-06-14T15:43:24;23.10;63.40
14993;DHT22;7592;51.088;13.732;2023-06-14T15:48:16;22.50;65.40
14993;DHT22;7592;51.088;13.732;2023-06-14T15:53:08;22.50;66.00
14993;DHT22;7592;51.088;13.732;2023-06-14T15:58:01;22.60;64.30
14993;DHT22;7592;51.088;13.732;2023-06-14T16:02:53;22.70;62.00
14993;DHT22;7592;51.088;13.732;2023-06-14T16:07:45;22.70;58.50
14993;DHT22;7592;51.088;13.732;2023-06-14T16:12:37;22.70;59.50
14993;DHT22;7592;51.088;13.732;2023-06-14T16:17:30;22.50;60.00
14993;DHT22;7592;51.088;13.732;2023-06-14T16:22:22;22.40;58.70
14993;DHT22;7592;51.088;13.732;2023-06-14T16:27:14;22.40;59.20
14993;DHT22;7592;51.088;13.732;2023-06-14T16:32:10;22.40;59.00
14993;DHT22;7592;51.088;13.732;2023-06-14T16:37:02;22.40;59.70
14993;DHT22;7592;51.088;13.732;2023-06-14T16:41:56;22.40;58.10
14993;DHT22;7592;51.088;13.732;2023-06-14T16:46:48;22.40;59.00
14993;DHT22;7592;51.088;13.732;2023-06-14T16:51:40;22.20;59.90
14993;DHT22;7592;51.088;13.732;2023-06-14T16:56:32;22.10;61.10
14993;DHT22;7592;51.088;13.732;2023-06-14T17:01:25;22.10;61.60
14993;DHT22;7592;51.088;13.732;2023-06-14T17:06:18;22.10;61.20
14993;DHT22;7592;51.088;13.732;2023-06-14T17:11:13;22.00;61.80
14993;DHT22;7592;51.088;13.732;2023-06-14T17:16:07;22.00;62.10
14993;DHT22;7592;51.088;13.732;2023-06-14T17:20:59;21.90;63.10
14993;DHT22;7592;51.088;13.732;2023-06-14T17:25:51;21.90;62.10
14993;DHT22;7592;51.088;13.732;2023-06-14T17:30:43;21.90;63.90
14993;DHT22;7592;51.088;13.732;2023-06-14T17:35:36;21.90;64.20
14993;DHT22;7592;51.088;13.732;2023-06-14T17:40:29;21.80;63.40
14993;DHT22;7592;51.088;13.732;2023-06-14T17:45:39;21.50;63.80
14993;DHT22;7592;51.088;13.732;2023-06-14T17:50:33;21.30;65.10
14993;DHT22;7592;51.088;13.732;2023-06-14T17:55:27;21.20;65.80
14993;DHT22;7592;51.088;13.732;2023-06-14T18:00:19;21.10;67.10
14993;DHT22;7592;51.088;13.732;2023-06-14T18:05:11;21.00;67.90
14993;DHT22;7592;51.088;13.732;2023-06-14T18:10:05;20.80;69.10
14993;DHT22;7592;51.088;13.732;2023-06-14T18:14:58;20.80;69.70
14993;DHT22;7592;51.088;13.732;2023-06-14T18:19:51;20.60;70.80
14993;DHT22;7592;51.088;13.732;2023-06-14T18:24:43;20.60;71.10
14993;DHT22;7592;51.088;13.732;2023-06-14T18:29:35;20.50;72.00
14993;DHT22;7592;51.088;13.732;2023-06-14T18:34:28;20.50;72.30
14993;DHT22;7592;51.088;13.732;2023-06-14T18:39:20;20.60;72.60
14993;DHT22;7592;51.088;13.732;2023-06-14T18:44:12;20.60;73.10
14993;DHT22;7592;51.088;13.732;2023-06-14T18:49:04;20.50;73.90
14993;DHT22;7592;51.088;13.732;2023-06-14T18:53:56;20.30;75.20
14993;DHT22;7592;51.088;13.732;2023-06-14T18:58:49;20.00;76.70
14993;DHT22;7592;51.088;13.732;2023-06-14T19:03:41;19.80;77.80
14993;DHT22;7592;51.088;13.732;2023-06-14T19:08:34;19.60;80.50
14993;DHT22;7592;51.088;13.732;2023-06-14T19:13:27;19.40;82.60
14993;DHT22;7592;51.088;13.732;2023-06-14T19:18:20;19.30;84.20
14993;DHT22;7592;51.088;13.732;2023-06-14T19:23:15;19.10;86.90
14993;DHT22;7592;51.088;13.732;2023-06-14T19:28:08;18.90;91.20
14993;DHT22;7592;51.088;13.732;2023-06-14T19:33:00;18.80;93.00
14993;DHT22;7592;51.088;13.732;2023-06-14T19:37:52;18.70;95.60
14993;DHT22;7592;51.088;13.732;2023-06-14T19:42:44;18.70;99.00
14993;DHT22;7592;51.088;13.732;2023-06-14T19:47:36;18.50;99.90
14993;DHT22;7592;51.088;13.732;2023-06-14T19:52:28;18.30;99.90
14993;DHT22;7592;51.088;13.732;2023-06-14T19:57:21;18.20;99.90
14993;DHT22;7592;51.088;13.732;2023-06-14T20:02:13;17.90;99.90
14993;DHT22;7592;51.088;13.732;2023-06-14T20:07:05;17.80;99.90
14993;DHT22;7592;51.088;13.732;2023-06-14T20:11:58;17.60;99.90
14993;DHT22;7592;51.088;13.732;2023-06-14T20:16:50;17.50;99.90
14993;DHT22;7592;51.088;13.732;2023-06-14T20:21:43;17.50;99.90
14993;DHT22;7592;51.088;13.732;2023-06-14T20:26:36;17.50;99.90
14993;DHT22;7592;51.088;13.732;2023-06-14T20:31:28;17.40;99.90
14993;DHT22;7592;51.088;13.732;2023-06-14T20:36:20;17.30;99.90
14993;DHT22;7592;51.088;13.732;2023-06-14T20:41:13;17.30;99.90
14993;DHT22;7592;51.088;13.732;2023-06-14T20:46:05;17.20;99.90
14993;DHT22;7592;51.088;13.732;2023-06-14T20:50:59;17.20;99.90
14993;DHT22;7592;51.088;13.732;2023-06-14T20:55:51;17.00;99.90
14993;DHT22;7592;51.088;13.732;2023-06-14T21:00:43;16.80;99.90
14993;DHT22;7592;51.088;13.732;2023-06-14T21:05:38;16.80;99.90
14993;DHT22;7592;51.088;13.732;2023-06-14T21:10:34;16.70;99.90
14993;DHT22;7592;51.088;13.732;2023-06-14T21:15:26;16.50;99.90
14993;DHT22;7592;51.088;13.732;2023-06-14T21:20:18;16.40;99.90
14993;DHT22;7592;51.088;13.732;2023-06-14T21:25:10;16.30;99.90
14993;DHT22;7592;51.088;13.732;2023-06-14T21:30:03;16.20;99.90
14993;DHT22;7592;51.088;13.732;2023-06-14T21:34:56;16.10;99.90
14993;DHT22;7592;51.088;13.732;2023-06-14T21:39:48;16.00;99.90
14993;DHT22;7592;51.088;13.732;2023-06-14T21:44:42;15.90;99.90
14993;DHT22;7592;51.088;13.732;2023-06-14T21:49:36;15.80;99.90
14993;DHT22;7592;51.088;13.732;2023-06-14T21:54:28;15.70;99.90
14993;DHT22;7592;51.088;13.732;2023-06-14T21:59:20;15.70;99.90
14993;DHT22;7592;51.088;13.732;2023-06-14T22:04:12;15.70;99.90
14993;DHT22;7592;51.088;13.732;2023-06-14T22:09:05;15.70;99.90
14993;DHT22;7592;51.088;13.732;2023-06-14T22:13:57;15.60;99.90
14993;DHT22;7592;51.088;13.732;2023-06-14T22:18:51;15.50;99.90
14993;DHT22;7592;51.088;13.732;2023-06-14T22:23:43;15.30;99.90
14993;DHT22;7592;51.088;13.732;2023-06-14T22:28:36;15.20;99.90
14993;DHT22;7592;51.088;13.732;2023-06-14T22:33:35;15.10;99.90
14993;DHT22;7592;51.088;13.732;2023-06-14T22:38:40;15.10;99.90
14993;DHT22;7592;51.088;13.732;2023-06-14T22:43:32;15.20;99.90
14993;DHT22;7592;51.088;13.732;2023-06-14T22:48:24;15.10;99.90
14993;DHT22;7592;51.088;13.732;2023-06-14T22:53:16;15.00;99.90
14993;DHT22;7592;51.088;13.732;2023-06-14T22:58:09;15.00;99.90
14993;DHT22;7592;51.088;13.732;2023-06-14T23:03:07;15.10;99.90
14993;DHT22;7592;51.088;13.732;2023-06-14T23:07:59;14.90;99.90
14993;DHT22;7592;51.088;13.732;2023-06-14T23:12:51;14.80;99.90
14993;DHT22;7592;51.088;13.732;2023-06-14T23:17:43;14.80;99.90
14993;DHT22;7592;51.088;13.732;2023-06-14T23:22:42;14.80;99.90
14993;DHT22;7592;51.088;13.732;2023-06-14T23:27:35;14.90;99.90
14993;DHT22;7592;51.088;13.732;2023-06-14T23:32:29;15.00;99.90
14993;DHT22;7592;51.088;13.732;2023-06-14T23:37:22;15.00;99.90
14993;DHT22;7592;51.088;13.732;2023-06-14T23:42:15;14.90;99.90
14993;DHT22;7592;51.088;13.732;2023-06-14T23:47:08;14.90;99.90
14993;DHT22;7592;51.088;13.732;2023-06-14T23:52:00;14.90;99.90
14993;DHT22;7592;51.088;13.732;2023-06-14T23:56:53;14.90;99.90
